createdAt,value
2022-11-22T00:02:23.281Z,-1.80
2022-11-22T00:07:26.510Z,-1.50
2022-11-22T00:12:30.974Z,-1.50
2022-11-22T00:17:35.040Z,-1.40
2022-11-22T00:22:43.946Z,-1.20
2022-11-22T00:27:49.015Z,-1.30
2022-11-22T00:33:12.749Z,-1.30
2022-11-22T00:38:15.733Z,-1.20
2022-11-22T00:43:20.245Z,-1.40
2022-11-22T00:48:23.573Z,-1.50
2022-11-22T00:53:26.681Z,-1.50
2022-11-22T00:58:31.009Z,-1.50
2022-11-22T01:03:34.065Z,-1.40
2022-11-22T01:08:37.183Z,-1.40
2022-11-22T01:13:41.583Z,-1.40
2022-11-22T01:18:45.739Z,-1.40
2022-11-22T01:23:48.811Z,-1.40
2022-11-22T01:28:53.274Z,-1.40
2022-11-22T01:33:56.520Z,-1.40
2022-11-22T01:38:59.556Z,-1.40
2022-11-22T01:44:19.870Z,-1.30
2022-11-22T01:49:28.917Z,-1.50
2022-11-22T01:54:35.733Z,-1.60
2022-11-22T01:59:44.957Z,-1.60
2022-11-22T02:04:50.368Z,-1.70
2022-11-22T02:09:54.243Z,-1.80
2022-11-22T02:14:59.339Z,-1.80
2022-11-22T02:20:02.719Z,-1.90
2022-11-22T02:25:13.862Z,-1.90
2022-11-22T02:30:19.160Z,-1.80
2022-11-22T02:35:25.358Z,-1.70
2022-11-22T02:40:31.601Z,-1.70
2022-11-22T02:45:35.942Z,-1.70
2022-11-22T02:50:39.171Z,-1.70
2022-11-22T02:55:42.619Z,-1.70
2022-11-22T03:00:47.204Z,-1.60
2022-11-22T03:05:50.288Z,-1.60
2022-11-22T03:10:53.431Z,-1.60
2022-11-22T03:15:57.846Z,-1.50
2022-11-22T03:21:02.693Z,-1.50
2022-11-22T03:26:10.025Z,-1.50
2022-11-22T03:31:14.452Z,-1.60
2022-11-22T03:36:17.608Z,-1.70
2022-11-22T03:41:20.694Z,-1.70
2022-11-22T03:46:25.130Z,-1.80
2022-11-22T03:51:28.328Z,-1.80
2022-11-22T03:56:31.606Z,-1.80
2022-11-22T04:01:36.040Z,-1.80
2022-11-22T04:06:40.055Z,-1.70
2022-11-22T04:11:43.124Z,-1.70
2022-11-22T04:16:47.539Z,-1.70
2022-11-22T04:21:50.582Z,-1.70
2022-11-22T04:26:54.325Z,-1.60
2022-11-22T04:32:17.307Z,-1.70
2022-11-22T04:37:20.468Z,-1.70
2022-11-22T04:42:42.186Z,-1.60
2022-11-22T04:47:59.440Z,-1.50
2022-11-22T04:53:02.491Z,-1.50
2022-11-22T04:58:05.636Z,-1.50
2022-11-22T05:03:10.957Z,-1.40
2022-11-22T05:08:13.932Z,-1.40
2022-11-22T05:13:16.994Z,-1.40
2022-11-22T05:18:23.004Z,-1.30
2022-11-22T05:23:45.005Z,-1.50
2022-11-22T05:28:48.084Z,-1.20
2022-11-22T05:33:53.952Z,-1.10
2022-11-22T05:38:57.029Z,-1.20
2022-11-22T05:44:00.248Z,-1.00
2022-11-22T05:49:05.245Z,-1.00
2022-11-22T05:54:08.487Z,-1.00
2022-11-22T05:59:11.831Z,-1.00
2022-11-22T06:04:16.324Z,-1.00
2022-11-22T06:09:19.382Z,-0.80
2022-11-22T06:14:22.375Z,-1.00
2022-11-22T06:19:26.901Z,-0.90
2022-11-22T06:24:30.117Z,-0.90
2022-11-22T06:29:33.412Z,-0.80
2022-11-22T06:34:37.834Z,-0.90
2022-11-22T06:39:40.872Z,-0.80
2022-11-22T06:44:44.029Z,-0.80
2022-11-22T06:49:48.456Z,-0.70
2022-11-22T06:54:51.558Z,-0.70
2022-11-22T06:59:55.799Z,-0.60
2022-11-22T07:05:24.579Z,-0.70
2022-11-22T07:10:31.207Z,-0.70
2022-11-22T07:15:35.953Z,-0.40
2022-11-22T07:20:41.165Z,-0.50
2022-11-22T07:25:45.363Z,-0.40
2022-11-22T07:30:48.612Z,-0.40
2022-11-22T07:35:53.347Z,-0.30
2022-11-22T07:40:56.896Z,-0.30
2022-11-22T07:46:01.185Z,-0.20
2022-11-22T07:51:07.478Z,-0.20
2022-11-22T07:56:11.107Z,-0.10
2022-11-22T08:01:16.571Z,-0.10
2022-11-22T08:06:21.450Z,0.00
2022-11-22T08:11:24.963Z,0.10
2022-11-22T08:16:28.257Z,0.30
2022-11-22T08:21:32.951Z,0.30
2022-11-22T08:26:36.376Z,0.30
2022-11-22T08:31:40.197Z,0.40
2022-11-22T08:36:45.193Z,0.50
2022-11-22T08:41:48.515Z,0.40
2022-11-22T08:46:51.792Z,0.50
2022-11-22T08:51:56.398Z,0.40
2022-11-22T08:56:59.566Z,0.50
2022-11-22T09:02:03.169Z,0.60
2022-11-22T09:12:30.957Z,0.60
2022-11-22T09:17:34.147Z,0.70
2022-11-22T09:22:39.285Z,0.70
2022-11-22T09:27:42.454Z,0.80
2022-11-22T09:32:45.772Z,1.10
2022-11-22T09:37:50.478Z,1.00
2022-11-22T09:43:06.920Z,1.00
2022-11-22T09:48:23.573Z,1.00
2022-11-22T09:53:38.173Z,1.00
2022-11-22T09:58:47.774Z,1.20
2022-11-22T10:03:57.992Z,1.30
2022-11-22T10:09:18.184Z,1.60
2022-11-22T10:14:32.193Z,1.60
2022-11-22T10:19:39.666Z,1.50
2022-11-22T10:24:44.324Z,1.60
2022-11-22T10:29:51.661Z,1.50
2022-11-22T10:35:19.085Z,1.50
2022-11-22T10:40:31.410Z,1.50
2022-11-22T10:45:40.641Z,1.50
2022-11-22T10:50:55.926Z,1.70
2022-11-22T10:56:08.969Z,1.60
2022-11-22T11:01:23.187Z,1.70
2022-11-22T11:06:57.070Z,1.70
2022-11-22T11:12:02.622Z,1.80
2022-11-22T11:17:07.144Z,1.70
2022-11-22T11:22:30.525Z,2.10
2022-11-22T11:27:43.077Z,2.00
2022-11-22T11:32:52.931Z,2.10
2022-11-22T11:37:56.745Z,2.30
2022-11-22T11:43:21.270Z,2.30
2022-11-22T11:48:26.439Z,2.20
2022-11-22T11:53:29.708Z,2.20
2022-11-22T11:58:34.254Z,2.30
2022-11-22T12:03:37.514Z,2.30
2022-11-22T12:08:41.567Z,2.30
2022-11-22T12:14:18.618Z,2.30
2022-11-22T12:19:24.787Z,2.30
2022-11-22T12:29:58.583Z,2.20
2022-11-22T12:35:07.194Z,2.30
2022-11-22T12:40:16.984Z,2.30
2022-11-22T12:45:28.037Z,2.30
2022-11-22T12:50:40.467Z,2.30
2022-11-22T12:55:51.054Z,2.40
2022-11-22T13:01:05.870Z,2.30
2022-11-22T13:06:11.317Z,2.30
2022-11-22T13:11:16.588Z,2.40
2022-11-22T13:16:21.286Z,2.40
2022-11-22T13:21:30.887Z,2.50
2022-11-22T13:26:42.568Z,2.30
2022-11-22T13:32:05.872Z,2.30
2022-11-22T13:37:12.266Z,2.30
2022-11-22T13:42:19.699Z,2.20
2022-11-22T13:47:43.942Z,2.40
2022-11-22T13:52:52.026Z,2.40
2022-11-22T13:57:55.784Z,2.30
2022-11-22T14:03:21.740Z,2.30
2022-11-22T14:08:32.716Z,2.30
2022-11-22T14:13:42.380Z,2.30
2022-11-22T14:18:58.652Z,2.30
2022-11-22T14:24:11.215Z,2.30
2022-11-22T14:30:01.918Z,2.20
2022-11-22T14:35:29.003Z,2.20
2022-11-22T14:40:35.510Z,2.30
2022-11-22T14:45:45.580Z,2.20
2022-11-22T14:50:57.359Z,2.20
2022-11-22T14:56:06.853Z,2.20
2022-11-22T15:01:38.151Z,2.10
2022-11-22T15:09:17.608Z,2.20
2022-11-22T15:12:30.926Z,2.10
2022-11-22T16:01:30.449Z,2.20
2022-11-22T16:06:34.421Z,2.10
2022-11-22T16:11:40.238Z,2.10
2022-11-22T16:17:21.717Z,2.10
2022-11-22T16:22:29.933Z,2.10
2022-11-22T16:27:34.731Z,2.20
2022-11-22T16:32:38.203Z,2.20
2022-11-22T16:37:47.708Z,2.20
2022-11-22T16:42:53.441Z,2.10
2022-11-22T16:48:16.586Z,2.20
2022-11-22T16:53:20.368Z,2.30
2022-11-22T16:58:25.158Z,2.20
2022-11-22T17:03:33.771Z,2.20
2022-11-22T17:08:37.041Z,2.20
2022-11-22T17:13:41.788Z,2.20
2022-11-22T17:18:46.312Z,2.20
2022-11-22T17:23:50.238Z,2.20
2022-11-22T17:28:55.574Z,2.30
2022-11-22T17:33:59.432Z,2.20
2022-11-22T17:39:04.678Z,2.30
2022-11-22T17:44:16.164Z,2.20
2022-11-22T17:49:19.565Z,2.00
2022-11-22T17:54:22.782Z,2.20
2022-11-22T17:59:27.306Z,2.20
2022-11-22T18:04:30.637Z,2.20
2022-11-22T18:09:34.854Z,2.30
2022-11-22T18:14:39.859Z,2.30
2022-11-22T18:19:43.706Z,2.30
2022-11-22T18:24:46.927Z,2.30
2022-11-22T18:29:51.735Z,2.30
2022-11-22T18:34:54.902Z,2.30
2022-11-22T18:39:58.038Z,2.30
2022-11-22T18:45:02.692Z,2.40
2022-11-22T18:50:12.164Z,2.30
2022-11-22T18:55:17.931Z,2.30
2022-11-22T19:00:23.150Z,2.30
2022-11-22T19:05:26.572Z,2.30
2022-11-22T19:10:29.992Z,2.20
2022-11-22T19:15:35.931Z,2.30
2022-11-22T19:20:54.810Z,2.40
2022-11-22T19:25:58.851Z,2.30
2022-11-22T19:31:04.667Z,2.20
2022-11-22T19:36:12.073Z,2.40
2022-11-22T19:41:17.123Z,2.50
2022-11-22T19:46:21.974Z,2.40
2022-11-22T19:51:26.937Z,2.30
2022-11-22T19:56:31.943Z,2.40
2022-11-22T20:01:36.602Z,2.40
2022-11-22T20:06:40.380Z,2.30
2022-11-22T20:11:45.429Z,2.20
2022-11-22T20:16:50.049Z,2.20
2022-11-22T20:21:53.312Z,2.30
2022-11-22T20:26:56.530Z,2.10
2022-11-22T20:32:01.884Z,2.10
2022-11-22T20:37:05.315Z,1.90
2022-11-22T20:42:33.073Z,1.80
2022-11-22T20:47:33.500Z,1.80
2022-11-22T20:52:36.746Z,1.70
2022-11-22T20:57:40.514Z,1.70
2022-11-22T21:02:44.987Z,1.60
2022-11-22T21:07:48.157Z,1.60
2022-11-22T21:12:52.248Z,1.80
2022-11-22T21:18:23.455Z,1.80
2022-11-22T21:23:21.939Z,2.00
2022-11-22T21:28:25.612Z,1.90
2022-11-22T21:33:34.800Z,1.80
2022-11-22T21:38:40.756Z,1.60
2022-11-22T21:43:48.871Z,1.70
2022-11-22T21:48:56.037Z,1.50
2022-11-22T21:54:00.359Z,1.40
2022-11-22T21:59:03.665Z,1.20
2022-11-22T22:04:08.172Z,1.30
2022-11-22T22:09:12.346Z,1.20
2022-11-22T22:14:16.705Z,1.20
2022-11-22T22:19:21.771Z,1.20
2022-11-22T22:24:25.407Z,1.00
2022-11-22T22:29:29.383Z,0.90
2022-11-22T22:34:36.222Z,0.80
2022-11-22T22:39:39.879Z,0.70
2022-11-22T22:44:43.505Z,0.80
2022-11-22T22:49:48.594Z,0.70
2022-11-22T22:54:52.206Z,0.70
2022-11-22T22:59:56.080Z,1.00
2022-11-22T23:05:00.716Z,1.00
2022-11-22T23:10:05.590Z,0.80
2022-11-22T23:15:10.100Z,0.80
2022-11-22T23:20:15.475Z,0.80
2022-11-22T23:25:18.600Z,0.80
2022-11-22T23:30:22.454Z,0.80
2022-11-22T23:35:27.757Z,0.70
2022-11-22T23:40:32.988Z,0.90
2022-11-22T23:45:36.195Z,0.80
2022-11-22T23:50:40.743Z,0.90
2022-11-22T23:55:43.896Z,0.90
